createdAt,value
2019-06-10T00:01:55.896Z,97469.65
2019-06-10T00:04:23.822Z,97464.23
2019-06-10T00:06:51.792Z,97462.42
2019-06-10T00:09:21.127Z,97458.16
2019-06-10T00:11:51.388Z,97455.80
2019-06-10T00:14:21.053Z,97447.66
2019-06-10T00:16:50.676Z,97441.89
2019-06-10T00:19:18.169Z,97432.19
2019-06-10T00:21:46.250Z,97433.55
2019-06-10T00:24:14.139Z,97430.84
2019-06-10T00:26:41.952Z,97425.21
2019-06-10T00:29:11.990Z,97419.55
2019-06-10T00:31:41.734Z,97423.62
2019-06-10T00:34:12.099Z,97417.43
2019-06-10T00:36:41.352Z,97420.70
2019-06-10T00:39:13.139Z,97416.48
2019-06-10T00:41:39.390Z,97416.98
2019-06-10T00:44:08.314Z,97423.55
2019-06-10T00:46:36.616Z,97416.33
2019-06-10T00:49:07.523Z,97405.49
2019-06-10T00:51:34.533Z,97394.44
2019-06-10T00:54:04.929Z,97392.30
2019-06-10T00:56:32.275Z,97379.44
2019-06-10T00:59:00.999Z,97380.45
2019-06-10T01:01:31.238Z,97375.94
2019-06-10T01:04:02.947Z,97376.52
2019-06-10T01:06:31.632Z,97380.00
2019-06-10T01:09:00.673Z,97378.09
2019-06-10T01:11:31.051Z,97377.88
2019-06-10T01:14:01.379Z,97384.06
2019-06-10T01:16:28.919Z,97381.95
2019-06-10T01:18:56.732Z,97373.81
2019-06-10T01:21:24.706Z,97365.03
2019-06-10T01:23:52.740Z,97356.11
2019-06-10T01:26:21.680Z,97359.82
2019-06-10T01:28:51.652Z,97362.67
2019-06-10T01:31:23.977Z,97360.97
2019-06-10T01:33:51.334Z,97359.61
2019-06-10T01:36:21.077Z,97359.38
2019-06-10T01:38:50.954Z,97356.67
2019-06-10T01:41:18.438Z,97353.19
2019-06-10T01:43:46.712Z,97353.75
2019-06-10T01:46:16.258Z,97348.53
2019-06-10T01:48:48.087Z,97349.13
2019-06-10T01:51:21.074Z,97342.35
2019-06-10T01:53:51.026Z,97331.06
2019-06-10T01:56:19.100Z,97330.27
2019-06-10T01:58:47.993Z,97337.05
2019-06-10T02:01:23.376Z,97332.78
2019-06-10T02:03:51.953Z,97343.61
2019-06-10T02:06:25.126Z,97345.17
2019-06-10T02:08:51.403Z,97350.83
2019-06-10T02:11:23.542Z,97352.95
2019-06-10T02:13:51.396Z,97359.73
2019-06-10T02:16:24.078Z,97370.01
2019-06-10T02:19:00.114Z,97372.37
2019-06-10T02:21:24.317Z,97372.22
2019-06-10T02:23:52.031Z,97359.17
2019-06-10T02:26:23.248Z,97347.68
2019-06-10T02:28:51.228Z,97341.70
2019-06-10T02:31:29.053Z,97341.70
2019-06-10T02:33:52.073Z,97342.05
2019-06-10T02:36:25.656Z,97343.41
2019-06-10T02:38:47.954Z,97339.11
2019-06-10T02:41:20.254Z,97349.39
2019-06-10T02:43:45.709Z,97348.23
2019-06-10T02:46:17.393Z,97339.11
2019-06-10T02:48:43.716Z,97348.59
2019-06-10T02:51:14.276Z,97337.31
2019-06-10T02:53:43.471Z,97358.39
2019-06-10T02:56:12.698Z,97412.22
2019-06-10T02:58:45.000Z,97457.13
2019-06-10T03:01:14.686Z,97478.32
2019-06-10T03:03:45.826Z,97481.69
2019-06-10T03:06:13.634Z,97453.98
2019-06-10T03:08:43.402Z,97445.53
2019-06-10T03:11:09.771Z,97437.61
2019-06-10T03:13:37.775Z,97424.41
2019-06-10T03:16:36.532Z,97418.58
2019-06-10T03:19:04.475Z,97421.05
2019-06-10T03:21:32.519Z,97405.94
2019-06-10T03:24:02.647Z,97398.96
2019-06-10T03:26:32.293Z,97393.89
2019-06-10T03:29:02.514Z,97383.05
2019-06-10T03:31:37.190Z,97365.52
2019-06-10T03:33:59.614Z,97346.00
2019-06-10T03:36:27.635Z,97294.72
2019-06-10T03:38:55.482Z,97203.42
2019-06-10T03:41:25.319Z,97161.95
2019-06-10T03:43:53.216Z,97162.54
2019-06-10T03:46:23.804Z,97165.81
2019-06-10T03:48:52.602Z,97177.68
2019-06-10T03:51:21.852Z,97163.66
2019-06-10T03:53:50.162Z,97167.47
2019-06-10T03:56:19.134Z,97263.14
2019-06-10T03:58:47.152Z,97359.06
2019-06-10T04:01:15.034Z,97368.39
2019-06-10T04:03:43.018Z,97337.34
2019-06-10T04:06:13.067Z,97240.36
2019-06-10T04:08:43.073Z,97350.53
2019-06-10T04:11:12.150Z,97340.11
2019-06-10T04:13:40.146Z,97336.48
2019-06-10T04:16:08.041Z,97329.62
2019-06-10T04:18:36.092Z,97326.15
2019-06-10T04:21:04.126Z,97325.11
2019-06-10T04:23:33.487Z,97327.83
2019-06-10T04:26:02.306Z,97318.43
2019-06-10T04:28:30.533Z,97303.44
2019-06-10T04:30:58.442Z,97293.30
2019-06-10T04:33:27.652Z,97303.79
2019-06-10T04:35:56.156Z,97299.14
2019-06-10T04:38:25.982Z,97288.42
2019-06-10T04:40:53.663Z,97283.47
2019-06-10T04:43:23.411Z,97273.75
2019-06-10T04:45:52.820Z,97255.38
2019-06-10T04:48:23.133Z,97263.50
2019-06-10T04:50:53.125Z,97292.95
2019-06-10T04:53:22.878Z,97304.14
2019-06-10T04:55:52.106Z,97293.72
2019-06-10T04:58:19.942Z,97289.39
2019-06-10T05:00:49.000Z,97296.37
2019-06-10T05:03:17.014Z,97307.62
2019-06-10T05:05:44.790Z,97298.13
2019-06-10T05:08:13.154Z,97306.85
2019-06-10T05:10:42.412Z,97313.83
2019-06-10T05:13:12.020Z,97306.70
2019-06-10T05:15:39.899Z,97294.66
2019-06-10T05:18:07.962Z,97285.94
2019-06-10T05:20:51.234Z,97291.59
2019-06-10T05:23:05.655Z,97293.30
2019-06-10T05:25:33.496Z,97287.68
2019-06-10T05:28:02.871Z,97283.61
2019-06-10T05:30:31.799Z,97287.89
2019-06-10T05:33:02.854Z,97279.55
2019-06-10T05:35:31.573Z,97267.36
2019-06-10T05:38:02.235Z,97280.11
2019-06-10T05:40:29.459Z,97274.34
2019-06-10T05:42:57.384Z,97250.72
2019-06-10T05:45:27.359Z,97244.53
2019-06-10T05:47:54.852Z,97264.86
2019-06-10T05:50:24.046Z,97290.45
2019-06-10T05:52:52.497Z,97291.12
2019-06-10T05:55:22.470Z,97284.35
2019-06-10T05:57:50.138Z,97283.88
2019-06-10T06:00:18.068Z,97281.77
2019-06-10T06:02:46.108Z,97292.84
2019-06-10T06:05:14.115Z,97298.46
2019-06-10T06:07:42.453Z,97299.14
2019-06-10T06:10:12.801Z,97307.50
2019-06-10T06:12:42.256Z,97304.67
2019-06-10T06:15:09.927Z,97306.83
2019-06-10T06:17:38.632Z,97306.03
2019-06-10T06:20:06.597Z,97316.39
2019-06-10T06:22:35.707Z,97326.23
2019-06-10T06:25:04.057Z,97348.48
2019-06-10T06:27:33.821Z,97375.98
2019-06-10T06:30:06.991Z,97373.77
2019-06-10T06:32:33.715Z,97375.34
2019-06-10T06:35:02.116Z,97369.00
2019-06-10T06:37:34.698Z,97356.72
2019-06-10T06:39:59.662Z,97357.16
2019-06-10T06:42:27.652Z,97377.28
2019-06-10T06:44:55.666Z,97377.84
2019-06-10T06:47:23.562Z,97352.45
2019-06-10T06:49:53.092Z,97353.56
2019-06-10T06:52:38.918Z,97345.79
2019-06-10T06:54:52.880Z,97339.58
2019-06-10T06:57:22.288Z,97338.22
2019-06-10T06:59:52.468Z,97333.36
2019-06-10T07:02:22.550Z,97328.53
2019-06-10T07:04:52.434Z,97324.38
2019-06-10T07:07:22.235Z,97318.19
2019-06-10T07:09:49.984Z,97313.77
2019-06-10T07:12:17.803Z,97305.64
2019-06-10T07:14:45.670Z,97304.64
2019-06-10T07:17:13.429Z,97307.00
2019-06-10T07:19:45.650Z,97381.36
2019-06-10T07:22:13.477Z,97391.27
2019-06-10T07:24:46.800Z,97384.14
2019-06-10T07:27:12.953Z,97393.89
2019-06-10T07:29:44.822Z,97368.23
2019-06-10T07:32:12.298Z,97324.67
2019-06-10T07:34:40.476Z,97323.11
2019-06-10T07:37:09.217Z,97317.25
2019-06-10T07:39:38.374Z,97313.77
2019-06-10T07:42:06.642Z,97304.91
2019-06-10T07:44:34.893Z,97306.06
2019-06-10T07:47:03.834Z,97305.35
2019-06-10T07:49:33.491Z,97300.99
2019-06-10T07:52:12.931Z,97281.67
2019-06-10T07:54:33.281Z,97271.63
2019-06-10T07:57:02.417Z,97278.61
2019-06-10T07:59:32.298Z,97298.73
2019-06-10T08:02:02.884Z,97308.27
2019-06-10T08:04:29.808Z,97311.80
2019-06-10T08:06:57.598Z,97295.05
2019-06-10T08:09:25.490Z,97277.11
2019-06-10T08:11:53.669Z,97270.01
2019-06-10T08:14:22.269Z,97269.89
2019-06-10T08:16:53.143Z,97275.31
2019-06-10T08:19:31.597Z,97255.98
2019-06-10T08:21:50.488Z,97241.29
2019-06-10T08:24:22.014Z,97236.31
2019-06-10T08:26:49.595Z,97240.73
2019-06-10T08:32:18.367Z,97296.58
2019-06-10T08:34:47.964Z,97295.22
2019-06-10T08:37:16.111Z,97299.70
2019-06-10T08:39:45.695Z,97299.70
2019-06-10T08:42:13.647Z,97292.92
2019-06-10T08:44:43.956Z,97291.56
2019-06-10T08:47:12.414Z,97273.59
2019-06-10T08:49:44.224Z,97274.54
2019-06-10T08:52:12.765Z,97262.34
2019-06-10T08:54:41.269Z,97251.70
2019-06-10T08:57:12.463Z,97294.16
2019-06-10T08:59:40.015Z,97329.69
2019-06-10T09:02:08.893Z,97317.05
2019-06-10T09:04:38.766Z,97302.41
2019-06-10T09:07:06.515Z,97321.20
2019-06-10T09:09:34.515Z,97286.23
2019-06-10T09:14:36.241Z,97305.65
2019-06-10T09:17:23.183Z,97285.44
2019-06-10T09:19:53.935Z,97296.52
2019-06-10T09:22:23.596Z,97277.59
2019-06-10T09:27:44.951Z,97279.95
2019-06-10T09:30:33.195Z,97273.27
2019-06-10T09:33:03.885Z,97261.27
2019-06-10T09:35:32.324Z,97261.47
2019-06-10T09:41:09.257Z,97256.64
2019-06-10T09:43:37.062Z,97262.91
2019-06-10T09:46:05.144Z,97260.41
2019-06-10T09:48:33.709Z,97253.06
2019-06-10T09:51:02.956Z,97249.20
2019-06-10T09:53:41.222Z,97255.06
2019-06-10T09:56:03.799Z,97250.20
2019-06-10T09:58:32.681Z,97249.28
2019-06-10T10:01:02.988Z,97242.71
2019-06-10T10:03:32.619Z,97240.95
2019-06-10T10:06:13.735Z,97246.38
2019-06-10T10:08:29.526Z,97243.42
2019-06-10T10:10:59.009Z,97239.00
2019-06-10T10:13:27.317Z,97216.55
2019-06-10T10:18:29.173Z,97202.28
2019-06-10T10:21:00.270Z,97211.53
2019-06-10T10:23:26.882Z,97221.53
2019-06-10T10:25:57.095Z,97214.40
2019-06-10T10:28:26.391Z,97214.48
2019-06-10T10:30:57.566Z,97213.84
2019-06-10T10:33:29.525Z,97210.69
2019-06-10T10:35:54.065Z,97208.26
2019-06-10T10:38:22.929Z,97202.84
2019-06-10T10:40:58.091Z,97206.27
2019-06-10T10:43:29.032Z,97204.55
2019-06-10T10:45:54.557Z,97201.48
2019-06-10T10:48:40.011Z,97196.63
2019-06-10T10:51:07.915Z,97194.78
2019-06-10T10:54:18.828Z,97194.34
2019-06-10T10:56:24.574Z,97192.91
2019-06-10T10:58:57.785Z,97198.41
2019-06-10T11:04:09.417Z,97191.79
2019-06-10T11:06:57.954Z,97193.55
2019-06-10T11:12:12.979Z,97172.22
2019-06-10T11:17:28.407Z,97161.73
2019-06-10T11:19:56.196Z,97157.47
2019-06-10T11:22:25.850Z,97155.67
2019-06-10T11:24:55.854Z,97157.27
2019-06-10T11:27:23.153Z,97152.12
2019-06-10T11:29:53.547Z,97140.91
2019-06-10T11:32:21.134Z,97150.45
2019-06-10T11:34:49.826Z,97153.16
2019-06-10T11:37:18.752Z,97149.33
2019-06-10T11:39:48.042Z,97147.73
2019-06-10T11:42:16.266Z,97150.52
2019-06-10T11:44:44.377Z,97141.39
2019-06-10T11:47:13.222Z,97132.34
2019-06-10T11:49:43.410Z,97131.19
2019-06-10T11:52:12.625Z,97121.89
2019-06-10T11:54:53.918Z,97114.75
2019-06-10T11:57:12.505Z,97106.84
2019-06-10T11:59:43.248Z,97098.35
2019-06-10T12:02:13.052Z,97095.48
2019-06-10T12:04:40.602Z,97080.20
2019-06-10T12:07:08.687Z,97079.14
2019-06-10T12:09:38.053Z,97071.01
2019-06-10T12:12:25.026Z,97063.14
2019-06-10T12:14:55.318Z,97051.06
2019-06-10T12:17:40.441Z,97050.50
2019-06-10T12:19:55.566Z,97041.57
2019-06-10T12:22:22.696Z,97036.74
2019-06-10T12:25:31.383Z,97034.03
2019-06-10T12:27:43.180Z,97028.61
2019-06-10T12:30:13.086Z,97025.53
2019-06-10T12:32:42.553Z,97026.72
2019-06-10T12:35:10.140Z,97013.16
2019-06-10T12:37:38.042Z,97007.38
2019-06-10T12:40:06.065Z,97003.50
2019-06-10T12:47:42.466Z,96997.14
2019-06-10T12:50:12.135Z,96986.12
2019-06-10T12:52:41.071Z,96985.20
2019-06-10T12:55:12.553Z,96990.63
2019-06-10T13:00:20.562Z,96983.28
2019-06-10T13:02:43.527Z,96980.96
2019-06-10T13:05:30.443Z,96983.05
2019-06-10T13:07:59.720Z,96988.73
2019-06-10T13:10:37.996Z,96881.22
2019-06-10T13:13:08.771Z,96976.16
2019-06-10T13:15:35.728Z,96973.67
2019-06-10T13:18:23.852Z,96970.37
2019-06-10T13:20:53.758Z,96966.72
2019-06-10T13:23:28.950Z,96964.27
2019-06-10T13:25:57.954Z,96959.03
2019-06-10T13:28:22.337Z,96955.53
2019-06-10T13:30:54.472Z,96956.69
2019-06-10T13:33:22.893Z,96954.17
2019-06-10T13:35:53.511Z,96946.66
2019-06-10T13:38:22.777Z,96935.86
2019-06-10T13:40:50.402Z,96945.30
2019-06-10T13:43:18.281Z,96944.00
2019-06-10T13:45:46.091Z,96935.30
2019-06-10T13:48:14.966Z,96920.37
2019-06-10T13:50:43.708Z,96916.49
2019-06-10T13:53:13.460Z,96908.35
2019-06-10T13:55:41.123Z,96895.40
2019-06-10T13:58:11.485Z,96895.97
2019-06-10T14:00:42.759Z,96881.83
2019-06-10T14:03:10.299Z,96882.03
2019-06-10T14:05:37.915Z,96881.46
2019-06-10T14:08:08.916Z,96877.22
2019-06-10T14:10:35.530Z,96872.21
2019-06-10T14:13:04.975Z,96872.16
2019-06-10T14:15:33.464Z,96841.94
2019-06-10T14:18:03.871Z,96835.98
2019-06-10T14:20:32.498Z,96831.70
2019-06-10T14:23:01.392Z,96829.58
2019-06-10T14:25:30.232Z,96826.86
2019-06-10T14:27:58.245Z,96824.97
2019-06-10T14:30:26.147Z,96836.99
2019-06-10T14:32:54.211Z,96830.80
2019-06-10T14:35:22.612Z,96817.61
2019-06-10T14:37:53.317Z,96810.40
2019-06-10T14:40:24.938Z,96806.02
2019-06-10T14:42:52.357Z,96799.19
2019-06-10T14:45:19.958Z,96799.73
2019-06-10T14:47:47.839Z,96798.06
2019-06-10T14:50:17.443Z,96784.48
2019-06-10T14:52:45.572Z,96774.98
2019-06-10T14:55:16.388Z,96779.05
2019-06-10T14:57:43.438Z,96781.34
2019-06-10T15:00:15.690Z,96796.88
2019-06-10T15:02:42.959Z,96803.66
2019-06-10T15:05:14.302Z,96815.09
2019-06-10T15:07:42.323Z,96819.53
2019-06-10T15:10:12.842Z,96821.88
2019-06-10T15:12:42.175Z,96821.67
2019-06-10T15:15:10.247Z,96835.25
2019-06-10T15:17:38.397Z,96784.37
2019-06-10T15:20:07.423Z,96874.42
2019-06-10T15:22:35.574Z,96873.25
2019-06-10T15:25:03.675Z,96890.89
2019-06-10T15:27:33.957Z,96886.59
2019-06-10T15:30:11.297Z,96890.29
2019-06-10T15:32:34.728Z,96901.52
2019-06-10T15:35:03.175Z,96911.61
2019-06-10T15:37:32.907Z,96916.25
2019-06-10T15:40:00.316Z,96916.45
2019-06-10T15:42:28.090Z,96913.17
2019-06-10T15:44:56.227Z,96917.23
2019-06-10T15:47:26.234Z,96925.38
2019-06-10T15:49:53.807Z,96929.87
2019-06-10T15:52:24.920Z,96937.03
2019-06-10T15:54:52.576Z,96922.30
2019-06-10T15:57:34.805Z,96915.52
2019-06-10T15:59:52.072Z,96914.77
2019-06-10T16:02:21.897Z,96920.97
2019-06-10T16:04:49.187Z,96926.44
2019-06-10T16:07:17.714Z,96916.52
2019-06-10T16:09:47.128Z,96832.22
2019-06-10T16:12:16.649Z,96921.34
2019-06-10T16:14:44.508Z,96925.41
2019-06-10T16:17:12.955Z,96932.78
2019-06-10T16:19:43.177Z,96932.96
2019-06-10T16:22:12.767Z,96947.59
2019-06-10T16:24:42.314Z,96945.02
2019-06-10T16:27:12.505Z,96936.86
2019-06-10T16:29:42.330Z,96924.64
2019-06-10T16:32:09.938Z,96917.27
2019-06-10T16:34:37.919Z,96928.79
2019-06-10T16:37:05.891Z,96943.27
2019-06-10T16:39:33.658Z,96938.98
2019-06-10T16:42:02.981Z,96762.23
2019-06-10T16:44:32.920Z,96947.89
2019-06-10T16:47:03.036Z,96936.80
2019-06-10T16:49:32.762Z,96914.55
2019-06-10T16:52:02.858Z,96886.86
2019-06-10T16:54:29.968Z,96803.15
2019-06-10T16:56:58.168Z,96866.82
2019-06-10T16:59:27.538Z,96848.05
2019-06-10T17:01:55.552Z,96851.75
2019-06-10T17:04:24.571Z,96861.62
2019-06-10T17:06:52.940Z,96869.74
2019-06-10T17:09:23.068Z,96883.87
2019-06-10T17:11:52.849Z,96881.39
2019-06-10T17:14:20.224Z,96878.08
2019-06-10T17:16:47.998Z,96875.96
2019-06-10T17:19:15.892Z,96878.08
2019-06-10T17:21:43.879Z,96871.09
2019-06-10T17:24:12.833Z,96867.77
2019-06-10T17:26:42.587Z,96880.97
2019-06-10T17:29:10.749Z,96892.77
2019-06-10T17:31:38.746Z,96902.48
2019-06-10T17:34:06.531Z,96908.53
2019-06-10T17:36:35.384Z,96913.36
2019-06-10T17:39:04.849Z,96917.06
2019-06-10T17:41:35.298Z,96914.52
2019-06-10T17:44:02.758Z,96911.81
2019-06-10T17:46:32.652Z,96930.09
2019-06-10T17:49:02.453Z,96944.94
2019-06-10T17:51:31.567Z,96950.43
2019-06-10T17:53:59.610Z,96968.25
2019-06-10T17:56:28.259Z,96975.59
2019-06-10T17:58:58.226Z,96968.70
2019-06-10T18:01:27.214Z,96952.09
2019-06-10T18:03:55.350Z,96949.52
2019-06-10T18:06:24.556Z,96947.38
2019-06-10T18:08:53.080Z,96950.26
2019-06-10T18:11:24.317Z,96941.69
2019-06-10T18:13:50.760Z,96932.36
2019-06-10T18:16:18.767Z,96925.63
2019-06-10T18:18:46.545Z,96909.91
2019-06-10T18:21:14.769Z,96913.86
2019-06-10T18:23:43.552Z,96920.20
2019-06-10T18:26:12.423Z,96918.05
2019-06-10T18:28:59.848Z,96897.13
2019-06-10T18:31:10.834Z,96891.11
2019-06-10T18:33:38.821Z,96898.86
2019-06-10T18:36:06.632Z,96907.56
2019-06-10T18:38:37.135Z,96913.36
2019-06-10T18:41:04.131Z,96911.44
2019-06-10T18:43:33.753Z,96909.52
2019-06-10T18:46:03.424Z,96916.70
2019-06-10T18:48:35.472Z,96917.44
2019-06-10T18:51:01.341Z,96918.97
2019-06-10T18:53:30.395Z,96908.73
2019-06-10T18:55:58.907Z,96904.46
2019-06-10T18:58:27.852Z,96902.88
2019-06-10T19:01:03.507Z,96922.84
2019-06-10T19:03:26.020Z,96926.91
2019-06-10T19:05:54.081Z,96926.12
2019-06-10T19:08:22.522Z,96921.86
2019-06-10T19:10:53.325Z,96915.27
2019-06-10T19:13:22.491Z,96917.36
2019-06-10T19:15:52.999Z,96919.53
2019-06-10T19:18:22.920Z,96916.63
2019-06-10T19:20:52.392Z,96922.05
2019-06-10T19:23:22.156Z,96912.75
2019-06-10T19:25:52.193Z,96899.16
2019-06-10T19:28:19.782Z,96913.91
2019-06-10T19:30:48.191Z,96936.66
2019-06-10T19:33:16.130Z,96938.59
2019-06-10T19:35:44.022Z,96935.87
2019-06-10T19:38:12.554Z,96936.44
2019-06-10T19:40:42.928Z,96929.41
2019-06-10T19:43:12.358Z,96936.55
2019-06-10T19:45:42.440Z,96949.25
2019-06-10T19:48:12.294Z,96960.30
2019-06-10T19:50:45.827Z,96961.97
2019-06-10T19:53:09.668Z,96950.30
2019-06-10T19:55:38.961Z,96942.77
2019-06-10T19:58:10.310Z,96943.77
2019-06-10T20:00:37.502Z,96947.66
2019-06-10T20:03:05.647Z,96937.16
2019-06-10T20:05:34.902Z,96933.08
2019-06-10T20:08:03.603Z,96920.87
2019-06-10T20:10:32.427Z,96902.61
2019-06-10T20:13:00.646Z,96896.56
2019-06-10T20:15:28.588Z,96886.84
2019-06-10T20:17:56.572Z,96877.34
2019-06-10T20:20:24.567Z,96874.06
2019-06-10T20:22:53.391Z,96869.00
2019-06-10T20:25:23.408Z,96863.01
2019-06-10T20:27:52.397Z,96844.58
2019-06-10T20:30:25.164Z,96839.16
2019-06-10T20:32:52.189Z,96837.60
2019-06-10T20:35:19.958Z,96839.16
2019-06-10T20:37:47.881Z,96841.45
2019-06-10T20:40:15.856Z,96840.09
2019-06-10T20:42:44.398Z,96847.47
2019-06-10T20:45:13.185Z,96841.69
2019-06-10T20:47:44.618Z,96841.67
2019-06-10T20:50:13.051Z,96834.89
2019-06-10T20:52:44.192Z,96820.90
2019-06-10T20:55:12.755Z,96818.19
2019-06-10T20:57:51.829Z,96811.59
2019-06-10T21:00:22.204Z,96796.43
2019-06-10T21:02:41.641Z,96806.16
2019-06-10T21:05:13.198Z,96811.77
2019-06-10T21:07:43.506Z,96797.59
2019-06-10T21:10:12.739Z,96798.16
2019-06-10T21:12:40.106Z,96806.52
2019-06-10T21:15:08.036Z,96816.16
2019-06-10T21:17:35.960Z,96836.14
2019-06-10T21:20:04.884Z,96835.95
2019-06-10T21:22:33.236Z,96836.94
2019-06-10T21:25:02.425Z,96841.18
2019-06-10T21:27:32.466Z,96847.59
2019-06-10T21:30:02.843Z,96855.93
2019-06-10T21:32:32.547Z,96865.62
2019-06-10T21:34:59.850Z,96861.19
2019-06-10T21:37:28.152Z,96848.72
2019-06-10T21:39:56.125Z,96846.98
2019-06-10T21:42:24.117Z,96856.72
2019-06-10T21:44:52.188Z,96855.14
2019-06-10T21:47:20.179Z,96853.16
2019-06-10T21:49:48.424Z,96861.90
2019-06-10T21:52:16.744Z,96870.03
2019-06-10T21:54:45.200Z,96870.61
2019-06-10T21:57:13.216Z,96874.67
2019-06-10T21:59:42.908Z,96869.62
2019-06-10T22:02:12.716Z,96873.30
2019-06-10T22:04:40.594Z,96881.44
2019-06-10T22:07:08.658Z,96887.42
2019-06-10T22:09:36.757Z,96892.06
2019-06-10T22:12:04.896Z,96884.71
2019-06-10T22:14:33.058Z,96884.71
2019-06-10T22:17:03.064Z,96880.22
2019-06-10T22:19:32.285Z,96879.45
2019-06-10T22:22:02.749Z,96892.03
2019-06-10T22:24:30.536Z,96888.72
2019-06-10T22:26:58.699Z,96884.45
2019-06-10T22:29:26.521Z,96897.03
2019-06-10T22:31:55.725Z,96887.54
2019-06-10T22:34:24.264Z,96891.80
2019-06-10T22:36:54.427Z,96888.89
2019-06-10T22:39:22.404Z,96919.36
2019-06-10T22:41:53.395Z,96921.45
2019-06-10T22:44:20.311Z,96929.02
2019-06-10T22:46:49.544Z,96930.52
2019-06-10T22:49:17.525Z,96928.77
2019-06-10T22:51:45.775Z,96931.51
2019-06-10T22:54:14.082Z,96927.41
2019-06-10T22:56:42.390Z,96931.88
2019-06-10T22:59:13.051Z,96927.41
2019-06-10T23:01:42.218Z,96922.55
2019-06-10T23:04:09.840Z,96928.54
2019-06-10T23:06:37.808Z,96925.43
2019-06-10T23:09:06.322Z,96918.48
2019-06-10T23:11:34.494Z,96914.41
2019-06-10T23:14:03.265Z,96895.59
2019-06-10T23:16:31.598Z,96891.52
2019-06-10T23:18:59.920Z,96872.54
2019-06-10T23:21:27.926Z,96855.84
2019-06-10T23:23:58.199Z,96861.69
2019-06-10T23:26:26.096Z,96857.98
2019-06-10T23:28:55.766Z,96853.13
2019-06-10T23:31:23.662Z,96847.51
2019-06-10T23:33:56.022Z,96841.66
2019-06-10T23:36:23.580Z,96842.65
2019-06-10T23:38:52.532Z,96844.56
2019-06-10T23:41:22.339Z,96845.73
2019-06-10T23:43:50.954Z,96843.22
2019-06-10T23:46:19.048Z,96843.22
2019-06-10T23:48:47.075Z,96852.94
2019-06-10T23:51:14.858Z,96855.42
2019-06-10T23:53:42.752Z,96865.70
2019-06-10T23:56:12.768Z,96863.19
2019-06-10T23:58:43.166Z,96869.41
